Time;durP1;ratioP1;P1;durP2;ratioP2;P2;SDS_P1;SDS_P2;PMS_P1;PMS_P2;Temp;Humidity;BMP_temperature;BMP_pressure;BME280_temperature;BME280_humidity;BME280_pressure;Samples;Min_cycle;Max_cycle;Signal;HPM_P1;HPM_P2
2023/03/14 00:02:41;;;;;;;9.63;1.00;;;;;;;9.48;100.00;98811.00;5002170;28;20041;-96
2023/03/14 00:05:10;;;;;;;8.73;1.40;;;;;;;9.52;100.00;98809.38;4984338;28;20411;-96
2023/03/14 00:14:20;;;;;;;;;;;;;;;;;;;;;
2023/03/14 00:16:51;;;;;;;10.23;1.17;;;;;;;9.45;100.00;98797.97;4907663;29;20043;-96
2023/03/14 00:19:53;;;;;;;9.30;0.98;;;;;;;9.47;98.88;98806.63;4904409;29;20042;-96
2023/03/14 00:25:55;;;;;;;4.60;1.13;;;;;;;9.69;94.41;98803.03;4935201;29;20050;-96
2023/03/14 00:39:27;;;;;;;;;;;;;;;;;;;;;
2023/03/14 00:42:35;;;;;;;;;;;;;;;;;;;;;
2023/03/14 00:45:45;;;;;;;;;;;;;;;;;;;;;
2023/03/14 00:56:32;;;;;;;;;;;;;;;;;;;;;
2023/03/14 00:59:28;;;;;;;;;;;;;;;;;;;;;
2023/03/14 01:02:32;;;;;;;;;;;;;;;;;;;;;
2023/03/14 01:06:09;;;;;;;;;;;;;;;;;;;;;
2023/03/14 01:09:32;;;;;;;6.35;1.00;;;;;;;10.13;90.72;98810.91;4815249;29;20081;-97
2023/03/14 01:20:22;;;;;;;;;;;;;;;;;;;;;
2023/03/14 01:26:46;;;;;;;8.60;0.80;;;;;;;10.18;87.62;98798.19;4917134;29;20107;-96
2023/03/14 01:29:47;;;;;;;;;;;;;;;;;;;;;
2023/03/14 01:33:00;;;;;;;;;;;;;;;;;;;;;
2023/03/14 01:36:30;;;;;;;;;;;;;;;;;;;;;
2023/03/14 01:40:05;;;;;;;5.97;1.25;;;;;;;10.11;88.33;98786.78;4929867;28;20551;-96
2023/03/14 01:46:28;;;;;;;4.38;0.77;;;;;;;9.99;89.95;98787.00;5023305;28;20512;-96
2023/03/14 01:49:25;;;;;;;;;;;;;;;;;;;;;
2023/03/14 01:52:10;;;;;;;4.75;1.00;;;;;;;9.96;90.11;98779.34;4957881;29;20032;-96
2023/03/14 01:58:39;;;;;;;5.30;0.70;;;;;;;10.07;90.17;98774.00;4902190;29;20048;-96
2023/03/14 02:05:02;;;;;;;6.20;1.20;;;;;;;10.00;90.56;98755.28;4921173;29;20074;-96
2023/03/14 02:07:40;;;;;;;9.95;1.10;;;;;;;10.11;90.33;98773.22;4892451;29;20044;-96
2023/03/14 02:10:19;;;;;;;;;;;;;;;;;;;;;
2023/03/14 02:13:08;;;;;;;6.47;1.10;;;;;;;9.97;91.35;98743.06;4923315;29;20119;-96
2023/03/14 02:16:05;;;;;;;8.98;0.90;;;;;;;9.99;91.25;98750.94;4964115;28;20038;-96
2023/03/14 02:22:36;;;;;;;;;;;;;;;;;;;;;
2023/03/14 02:43:22;;;;;;;9.55;1.55;;;;;;;9.70;94.13;98728.81;4997747;28;20065;-96
2023/03/14 02:46:24;;;;;;;6.78;0.93;;;;;;;9.83;93.97;98737.31;4981697;28;20494;-96
2023/03/14 02:52:21;;;;;;;8.77;1.17;;;;;;;9.83;93.57;98728.34;4985300;28;20098;-96
2023/03/14 02:55:13;;;;;;;10.90;1.43;;;;;;;9.86;93.54;98733.25;4964060;28;20065;-96
2023/03/14 03:01:04;;;;;;;8.23;1.10;;;;;;;9.91;93.09;98735.19;4984521;28;20034;-96
2023/03/14 03:06:42;;;;;;;;;;;;;;;;;;;;;
2023/03/14 03:10:01;;;;;;;;;;;;;;;;;;;;;
2023/03/14 03:12:45;;;;;;;;;;;;;;;;;;;;;
2023/03/14 03:15:19;;;;;;;7.68;1.33;;;;;;;9.95;92.89;98742.53;5016867;28;20054;-96
2023/03/14 03:18:30;;;;;;;6.28;1.42;;;;;;;9.91;93.12;98746.84;4976236;28;20154;-96
2023/03/14 03:21:37;;;;;;;;;;;;;;;;;;;;;
2023/03/14 03:24:19;;;;;;;10.23;1.13;;;;;;;9.84;92.83;98725.38;4990842;28;20118;-96
2023/03/14 03:27:29;;;;;;;;;;;;;;;;;;;;;
2023/03/14 03:30:26;;;;;;;6.70;1.23;;;;;;;9.82;93.08;98724.03;5006265;28;20053;-96
2023/03/14 03:32:57;;;;;;;8.50;1.05;;;;;;;9.84;93.47;98732.69;4984276;28;20038;-96
2023/03/14 03:35:39;;;;;;;8.48;1.35;;;;;;;9.82;92.59;98730.25;4989162;28;20057;-96
2023/03/14 03:38:23;;;;;;;;;;;;;;;;;;;;;
2023/03/14 03:41:04;;;;;;;5.63;1.30;;;;;;;9.81;92.57;98731.31;5010711;28;20058;-96
2023/03/14 03:46:49;;;;;;;;;;;;;;;;;;;;;
2023/03/14 03:52:20;;;;;;;5.87;1.00;;;;;;;9.76;91.92;98716.97;4977865;28;20081;-96
2023/03/14 03:55:06;;;;;;;5.68;1.20;;;;;;;9.78;92.12;98720.22;4997473;28;20030;-96
2023/03/14 03:58:02;;;;;;;;;;;;;;;;;;;;;
2023/03/14 04:00:50;;;;;;;;;;;;;;;;;;;;;
2023/03/14 04:03:30;;;;;;;5.82;0.77;;;;;;;9.10;99.61;98694.56;4994383;28;20042;-96
2023/03/14 04:06:44;;;;;;;;;;;;;;;;;;;;;
2023/03/14 04:09:19;;;;;;;5.80;0.77;;;;;;;9.04;99.21;98711.84;4994470;28;20034;-96
2023/03/14 04:11:57;;;;;;;5.43;0.80;;;;;;;9.12;97.92;98707.84;4994313;28;20093;-96
2023/03/14 04:14:31;;;;;;;3.83;0.60;;;;;;;9.15;97.59;98701.91;4979161;28;20034;-96
2023/03/14 04:20:23;;;;;;;4.20;0.88;;;;;;;9.23;97.24;98695.22;4995176;28;20368;-96
2023/03/14 04:22:53;;;;;;;8.07;0.90;;;;;;;9.29;97.58;98699.59;4994131;28;20058;-96
2023/03/14 04:25:24;;;;;;;4.82;0.75;;;;;;;9.38;97.84;98699.94;4977715;28;20044;-96
2023/03/14 04:28:03;;;;;;;5.05;1.15;;;;;;;9.40;98.42;98695.88;4961833;28;20074;-96
2023/03/14 04:30:33;;;;;;;7.80;1.20;;;;;;;9.28;100.00;98692.53;4993474;28;20026;-94
2023/03/14 04:33:37;;;;;;;5.57;0.65;;;;;;;9.36;100.00;98711.03;4978063;28;20037;-96
2023/03/14 04:36:24;;;;;;;3.78;0.80;;;;;;;9.46;100.00;98700.28;4987085;28;20045;-96
2023/03/14 04:39:13;;;;;;;3.15;0.80;;;;;;;9.37;100.00;98701.81;4993831;28;20125;-96
2023/03/14 04:42:01;;;;;;;5.03;1.02;;;;;;;9.33;100.00;98697.19;4966587;28;20447;-96
2023/03/14 04:45:00;;;;;;;;;;;;;;;;;;;;;
2023/03/14 04:47:55;;;;;;;3.60;0.68;;;;;;;9.01;100.00;98698.84;4999363;28;20049;-96
2023/03/14 04:51:04;;;;;;;2.70;0.50;;;;;;;8.66;100.00;98693.91;4975676;28;20073;-96
2023/03/14 04:53:34;;;;;;;4.90;0.60;;;;;;;8.50;100.00;98693.75;4992804;28;20129;-96
2023/03/14 04:56:18;;;;;;;;;;;;;;;;;;;;;
2023/03/14 04:59:18;;;;;;;3.42;0.77;;;;;;;8.24;100.00;98695.34;5001820;28;20551;-96
2023/03/14 05:01:53;;;;;;;5.10;0.73;;;;;;;8.16;100.00;98706.59;4985734;28;20042;-94
2023/03/14 05:04:43;;;;;;;3.72;0.63;;;;;;;8.07;100.00;98701.66;5003856;28;20463;-95
2023/03/14 05:07:21;;;;;;;2.65;0.68;;;;;;;8.22;100.00;98701.00;5000302;28;20042;-96
2023/03/14 05:09:53;;;;;;;3.63;0.90;;;;;;;8.07;100.00;98698.09;4998624;28;20442;-96
2023/03/14 05:18:51;;;;;;;3.30;0.60;;;;;;;8.12;100.00;98713.56;4960448;28;20166;-96
2023/03/14 05:24:21;;;;;;;;;;;;;;;;;;;;;
2023/03/14 05:27:08;;;;;;;6.35;1.40;;;;;;;8.02;100.00;98703.47;4958224;29;20035;-96
2023/03/14 05:30:11;;;;;;;;;;;;;;;;;;;;;
2023/03/14 05:32:52;;;;;;;;;;;;;;;;;;;;;
2023/03/14 05:35:19;;;;;;;3.80;1.30;;;;;;;7.97;100.00;98682.63;4998116;28;20030;-96
2023/03/14 05:37:50;;;;;;;6.80;1.65;;;;;;;7.96;100.00;98674.75;4997350;28;20026;-96
2023/03/14 05:40:24;;;;;;;8.27;1.75;;;;;;;8.02;100.00;98701.56;4997391;28;20045;-96
2023/03/14 05:46:50;;;;;;;8.55;2.00;;;;;;;8.08;100.00;98694.34;4997736;28;20065;-96
2023/03/14 05:49:30;;;;;;;5.57;1.35;;;;;;;8.01;100.00;98680.22;4996811;28;20486;-96
2023/03/14 05:52:12;;;;;;;5.25;2.00;;;;;;;8.05;100.00;98671.34;4981944;28;20525;-96
2023/03/14 05:55:00;;;;;;;;;;;;;;;;;;;;;
2023/03/14 06:00:45;;;;;;;6.68;2.15;;;;;;;8.02;100.00;98666.47;4990996;28;20038;-96
2023/03/14 06:06:58;;;;;;;;;;;;;;;;;;;;;
2023/03/14 06:17:00;;;;;;;8.73;2.50;;;;;;;8.06;100.00;98664.88;4902781;29;20051;-96
2023/03/14 06:20:12;;;;;;;7.55;3.10;;;;;;;8.07;100.00;98681.91;4868514;29;20053;-93
2023/03/14 06:22:48;;;;;;;;;;;;;;;;;;;;;
2023/03/14 06:28:13;;;;;;;5.30;3.00;;;;;;;8.13;100.00;98670.09;4927942;29;20084;-96
2023/03/14 06:30:50;;;;;;;9.18;3.95;;;;;;;8.17;100.00;98668.50;4940873;28;20042;-96
2023/03/14 06:33:40;;;;;;;11.57;3.20;;;;;;;8.24;100.00;98698.06;5351075;23;20046;-96
2023/03/14 06:36:15;;;;;;;7.57;3.38;;;;;;;8.17;100.00;98673.91;4979722;28;20034;-95
2023/03/14 06:42:05;;;;;;;;;;;;;;;;;;;;;
2023/03/14 06:44:59;;;;;;;8.23;3.67;;;;;;;8.19;100.00;98685.31;4999540;28;20102;-96
2023/03/14 06:47:30;;;;;;;11.15;3.88;;;;;;;8.24;100.00;98696.16;5025802;23;20051;-94
2023/03/14 06:53:46;;;;;;;10.35;3.63;;;;;;;8.45;100.00;98698.31;4946764;28;20046;-94
2023/03/14 06:56:26;;;;;;;10.30;3.55;;;;;;;8.37;100.00;98686.84;4956872;29;20491;-94
2023/03/14 06:59:22;;;;;;;9.65;3.45;;;;;;;8.49;100.00;98702.13;4942453;29;20039;-95
2023/03/14 07:02:13;;;;;;;6.47;2.67;;;;;;;8.44;100.00;98700.19;4956713;29;20034;-93
2023/03/14 07:05:07;;;;;;;5.93;2.83;;;;;;;8.45;100.00;98704.53;4940722;29;20043;-92
2023/03/14 07:10:53;;;;;;;;;;;;;;;;;;;;;
2023/03/14 07:13:28;;;;;;;9.82;3.60;;;;;;;8.47;100.00;98718.59;4952888;29;20045;-93
2023/03/14 07:15:53;;;;;;;7.60;3.40;;;;;;;8.47;100.00;98736.69;4920239;29;20103;-92
2023/03/14 07:21:44;;;;;;;8.80;3.38;;;;;;;8.37;100.00;98738.19;4907128;29;20103;-92
2023/03/14 07:24:47;;;;;;;5.85;2.88;;;;;;;8.34;100.00;98748.66;4920196;29;20046;-93
2023/03/14 07:31:10;;;;;;;4.68;1.63;;;;;;;8.03;100.00;98832.00;4911143;29;20047;-91
2023/03/14 07:33:58;;;;;;;9.98;1.58;;;;;;;7.64;100.00;98835.47;4935217;29;20094;-91
2023/03/14 07:36:44;;;;;;;4.85;0.90;;;;;;;7.45;100.00;98851.09;4905115;29;20198;-91
2023/03/14 07:39:25;;;;;;;;;;;;;;;;;;;;;
2023/03/14 07:42:14;;;;;;;2.90;0.70;;;;;;;7.10;100.00;98878.22;4937442;29;20042;-92
2023/03/14 07:44:48;;;;;;;2.58;0.70;;;;;;;6.88;100.00;98878.06;4936969;29;20028;-92
2023/03/14 07:47:21;;;;;;;2.38;0.57;;;;;;;6.70;100.00;98900.63;4903324;29;20512;-91
2023/03/14 07:50:20;;;;;;;1.50;0.50;;;;;;;6.59;100.00;98921.16;4920200;29;20035;-91
2023/03/14 07:52:47;;;;;;;3.35;1.10;;;;;;;6.42;100.00;98924.59;4908663;29;20103;-91
2023/03/14 07:55:22;;;;;;;1.90;0.60;;;;;;;6.36;100.00;98922.81;4903942;29;20052;-91
2023/03/14 07:57:53;;;;;;;2.10;1.25;;;;;;;6.31;100.00;98931.59;4920668;29;20036;-90
2023/03/14 08:00:25;;;;;;;4.38;1.75;;;;;;;6.36;100.00;98946.25;4919819;29;20040;-90
2023/03/14 08:03:10;;;;;;;4.78;2.90;;;;;;;6.35;100.00;98950.81;4889145;29;20131;-90
2023/03/14 08:05:47;;;;;;;5.60;2.90;;;;;;;6.36;100.00;98962.41;4919714;29;20070;-90
2023/03/14 08:08:15;;;;;;;6.72;3.35;;;;;;;6.32;100.00;98949.41;4920425;29;20035;-90
2023/03/14 08:10:58;;;;;;;4.22;3.03;;;;;;;6.37;100.00;98988.28;4919393;29;20464;-90
2023/03/14 08:13:50;;;;;;;6.93;3.08;;;;;;;6.43;100.00;98990.03;4919297;29;20032;-90
2023/03/14 08:16:26;;;;;;;3.17;2.20;;;;;;;6.35;100.00;98999.31;4905311;29;20087;-90
2023/03/14 08:19:10;;;;;;;4.78;1.48;;;;;;;6.34;100.00;99007.63;4920121;29;20040;-90
2023/03/14 08:21:44;;;;;;;3.30;1.25;;;;;;;6.24;100.00;99009.00;4939208;29;20062;-90
2023/03/14 08:24:42;;;;;;;;;;;;;;;;;;;;;
2023/03/14 08:27:21;;;;;;;3.40;0.93;;;;;;;6.19;100.00;99033.13;4927673;29;20054;-90
2023/03/14 08:29:55;;;;;;;4.88;0.90;;;;;;;6.27;100.00;99054.31;4924476;29;20032;-90
2023/03/14 08:32:31;;;;;;;2.85;0.73;;;;;;;6.31;100.00;99050.09;4940060;29;20063;-91
2023/03/14 08:35:16;;;;;;;4.30;1.00;;;;;;;6.36;100.00;99070.16;4923014;29;20030;-91
2023/03/14 08:37:52;;;;;;;9.48;1.27;;;;;;;6.40;100.00;99077.53;4923167;29;20032;-90
2023/03/14 08:40:18;;;;;;;5.70;1.50;;;;;;;6.35;100.00;99080.13;4923801;29;20032;-90
2023/03/14 08:43:24;;;;;;;5.70;1.75;;;;;;;6.30;100.00;99093.44;4923053;29;20039;-91
2023/03/14 08:45:52;;;;;;;7.18;2.28;;;;;;;6.22;100.00;99113.44;4922118;29;20156;-90
2023/03/14 08:48:30;;;;;;;;;;;;;;;;;;;;;
2023/03/14 08:51:14;;;;;;;4.68;2.45;;;;;;;6.24;100.00;99122.09;4924607;29;20044;-91
2023/03/14 08:53:42;;;;;;;9.02;2.85;;;;;;;6.25;100.00;99145.31;4938235;29;20187;-91
2023/03/14 08:56:10;;;;;;;5.25;2.05;;;;;;;6.25;100.00;99152.56;4924179;29;20039;-90
2023/03/14 08:58:47;;;;;;;7.47;2.13;;;;;;;6.29;100.00;99140.28;4922691;29;20039;-91
2023/03/14 09:01:26;;;;;;;8.68;2.85;;;;;;;6.39;100.00;99161.28;4922542;29;20032;-91
2023/03/14 09:03:52;;;;;;;8.93;3.00;;;;;;;6.42;100.00;99177.81;4922524;29;20036;-91
2023/03/14 09:06:27;;;;;;;8.55;2.80;;;;;;;6.40;100.00;99162.94;4922647;29;20075;-91
2023/03/14 09:09:00;;;;;;;4.53;1.80;;;;;;;6.49;100.00;99212.72;4923317;29;20059;-91
2023/03/14 09:11:54;;;;;;;4.10;1.60;;;;;;;6.53;100.00;99188.88;4922728;29;20392;-91
2023/03/14 09:14:22;;;;;;;3.80;2.20;;;;;;;6.65;100.00;99198.59;4922115;29;20031;-91
2023/03/14 09:16:58;;;;;;;;;;;;;;;;;;;;;
2023/03/14 09:19:39;;;;;;;;;;;;;;;;;;;;;
2023/03/14 09:22:13;;;;;;;2.35;1.50;;;;;;;7.05;100.00;99220.63;4939793;29;20387;-91
2023/03/14 09:24:49;;;;;;;3.23;1.63;;;;;;;7.08;100.00;99228.25;4922237;29;20023;-91
2023/03/14 09:27:29;;;;;;;;;;;;;;;;;;;;;
2023/03/14 09:30:17;;;;;;;;;;;;;;;;;;;;;
2023/03/14 09:32:50;;;;;;;6.97;1.40;;;;;;;6.92;100.00;99276.38;4938254;29;20035;-91
2023/03/14 09:35:20;;;;;;;5.22;1.00;;;;;;;6.73;100.00;99261.34;4937614;29;20055;-91
2023/03/14 09:37:51;;;;;;;3.37;0.63;;;;;;;6.72;100.00;99284.78;4906104;29;20038;-90
2023/03/14 09:40:33;;;;;;;4.75;0.77;;;;;;;6.58;100.00;99319.16;4922909;29;20031;-90
2023/03/14 09:43:29;;;;;;;2.08;0.50;;;;;;;6.60;100.00;99343.16;4923556;29;20035;-91
2023/03/14 09:46:11;;;;;;;;;;;;;;;;;;;;;
2023/03/14 09:48:43;;;;;;;1.83;0.38;;;;;;;6.34;100.00;99350.53;4938953;29;20411;-91
2023/03/14 09:51:48;;;;;;;3.63;0.53;;;;;;;6.06;100.00;99378.78;4934006;29;20055;-91
2023/03/14 09:58:20;;;;;;;3.15;0.30;;;;;;;5.43;100.00;99418.19;4879453;29;20041;-91
2023/03/14 10:00:48;;;;;;;1.80;0.25;;;;;;;5.42;100.00;99421.09;4863881;29;20037;-91
2023/03/14 10:03:49;;;;;;;;;;;;;;;;;;;;;
2023/03/14 10:06:17;;;;;;;1.73;0.30;;;;;;;5.78;100.00;99451.88;4919350;29;20032;-91
2023/03/14 10:08:52;;;;;;;2.35;0.30;;;;;;;6.01;100.00;99464.78;4918183;29;20024;-91
2023/03/14 10:11:22;;;;;;;6.05;0.40;;;;;;;6.30;100.00;99475.94;4918577;29;20528;-91
2023/03/14 10:14:19;;;;;;;2.20;0.40;;;;;;;6.73;100.00;99488.59;4918175;29;20040;-91
2023/03/14 10:16:49;;;;;;;5.28;0.40;;;;;;;7.20;100.00;99488.03;4933776;29;20092;-91
2023/03/14 10:19:35;;;;;;;;;;;;;;;;;;;;;
2023/03/14 10:22:42;;;;;;;1.95;0.50;;;;;;;7.31;100.00;99514.28;4919229;29;20070;-91
2023/03/14 10:28:58;;;;;;;;;;;;;;;;;;;;;
2023/03/14 10:31:48;;;;;;;3.42;0.40;;;;;;;7.06;100.00;99559.38;4918608;29;20040;-91
2023/03/14 10:34:34;;;;;;;6.20;0.60;;;;;;;7.09;100.00;99569.75;4917802;29;20032;-91
2023/03/14 10:37:54;;;;;;;;;;;;;;;;;;;;;
2023/03/14 10:40:34;;;;;;;10.68;0.70;;;;;;;7.71;100.00;99580.44;4919503;29;20387;-91
2023/03/14 10:43:28;;;;;;;8.10;1.08;;;;;;;7.50;99.99;99597.91;4917831;29;20036;-92
2023/03/14 10:46:05;;;;;;;9.43;1.00;;;;;;;7.27;99.71;99607.50;4913692;29;20537;-90
2023/03/14 10:48:36;;;;;;;10.47;1.00;;;;;;;7.08;98.74;99624.72;4917273;29;20063;-90
2023/03/14 10:51:32;;;;;;;6.45;0.70;;;;;;;6.86;100.00;99627.81;4920641;29;20098;-93
2023/03/14 10:54:24;;;;;;;;;;;;;;;;;;;;;
2023/03/14 10:57:07;;;;;;;7.53;0.77;;;;;;;6.42;100.00;99678.94;4938684;29;20035;-91
2023/03/14 11:00:21;;;;;;;8.32;0.63;;;;;;;6.16;100.00;99685.31;4921337;29;20134;-90
2023/03/14 11:07:05;;;;;;;12.63;1.30;;;;;;;6.10;100.00;99692.38;4860512;29;20053;-90
2023/03/14 11:13:11;;;;;;;11.73;1.30;;;;;;;7.09;100.00;99718.09;4861762;29;20185;-90
2023/03/14 11:15:56;;;;;;;7.75;0.85;;;;;;;7.35;100.00;99730.50;4866583;29;20030;-90
2023/03/14 11:18:48;;;;;;;7.03;0.70;;;;;;;7.40;100.00;99737.94;4865347;29;20041;-90
2023/03/14 11:21:46;;;;;;;;;;;;;;;;;;;;;
2023/03/14 11:25:41;;;;;;;10.38;0.80;;;;;;;7.72;100.00;99749.44;4860244;29;20051;-90
2023/03/14 11:29:03;;;;;;;;;;;;;;;;;;;;;
2023/03/14 11:31:56;;;;;;;10.98;1.25;;;;;;;7.28;100.00;99770.19;4897171;29;20079;-90
2023/03/14 11:41:55;;;;;;;7.63;1.05;;;;;;;6.32;100.00;99841.06;4859569;29;20160;-89
2023/03/14 11:44:32;;;;;;;6.35;1.20;;;;;;;5.80;100.00;99857.09;4864363;29;20048;-89
2023/03/14 11:47:11;;;;;;;10.88;1.15;;;;;;;5.54;100.00;99846.34;4896668;29;20036;-89
2023/03/14 11:49:53;;;;;;;12.07;1.23;;;;;;;5.68;100.00;99836.38;4915020;29;20050;-89
2023/03/14 11:52:23;;;;;;;5.15;0.95;;;;;;;6.14;100.00;99849.81;4919468;29;20039;-89
2023/03/14 11:55:15;;;;;;;;;;;;;;;;;;;;;
2023/03/14 11:57:50;;;;;;;10.70;1.15;;;;;;;7.50;100.00;99848.91;4937664;29;20356;-89
2023/03/14 12:00:25;;;;;;;10.73;1.38;;;;;;;8.02;100.00;99868.41;4934794;29;20036;-90
2023/03/14 12:03:19;;;;;;;11.87;1.63;;;;;;;8.18;100.00;99871.56;4920122;29;20036;-89
2023/03/14 12:06:24;;;;;;;;;;;;;;;;;;;;;
2023/03/14 12:09:14;;;;;;;16.15;1.63;;;;;;;9.04;96.71;99860.84;4936132;29;20040;-89
2023/03/14 12:12:22;;;;;;;;;;;;;;;;;;;;;
2023/03/14 12:15:11;;;;;;;17.20;1.80;;;;;;;8.65;94.30;99907.09;4936520;29;20042;-90
2023/03/14 12:17:53;;;;;;;13.87;1.77;;;;;;;8.47;93.58;99905.19;4919004;29;20035;-90
2023/03/14 12:20:32;;;;;;;15.15;1.80;;;;;;;8.73;93.61;99912.19;4935032;29;20031;-90
2023/03/14 12:23:20;;;;;;;;;;;;;;;;;;;;;
2023/03/14 12:26:32;;;;;;;15.13;1.70;;;;;;;10.64;87.03;99906.94;4937097;29;20042;-91
2023/03/14 12:29:08;;;;;;;11.88;1.95;;;;;;;14.22;76.43;99927.00;4938744;29;20111;-90
2023/03/14 12:32:32;;;;;;;9.83;1.63;;;;;;;17.35;73.11;99912.75;4924111;29;20099;-92
2023/03/14 12:36:03;;;;;;;10.60;2.00;;;;;;;16.87;65.91;99920.66;4910104;29;20031;-92
2023/03/14 12:41:44;;;;;;;16.73;2.00;;;;;;;22.42;50.05;99930.81;4936181;29;20039;-94
2023/03/14 12:44:38;;;;;;;9.60;1.80;;;;;;;24.26;46.62;99944.97;4936730;29;20095;-93
2023/03/14 12:47:25;;;;;;;12.10;2.30;;;;;;;24.52;44.55;99946.84;4936167;29;20145;-93
2023/03/14 12:49:58;;;;;;;12.93;2.10;;;;;;;23.44;35.39;99945.66;4924971;29;20043;-93
2023/03/14 12:53:28;;;;;;;14.02;2.45;;;;;;;22.30;46.41;99957.41;4918879;29;20036;-93
2023/03/14 12:57:04;;;;;;;17.17;2.47;;;;;;;20.45;45.53;99963.00;4877291;29;20044;-93
2023/03/14 12:59:47;;;;;;;11.23;2.38;;;;;;;25.17;36.37;99957.84;4862468;29;20120;-91
2023/03/14 13:02:32;;;;;;;17.17;2.67;;;;;;;28.02;36.13;99962.81;4877110;29;20091;-91
2023/03/14 13:05:22;;;;;;;12.35;2.38;;;;;;;29.75;25.42;99967.88;4897890;28;20045;-91
2023/03/14 13:11:26;;;;;;;9.73;2.15;;;;;;;29.44;23.50;99974.41;4899794;29;20047;-90
2023/03/14 13:24:33;;;;;;;10.10;2.65;;;;;;;31.41;22.45;100001.69;4845412;29;20079;-90
2023/03/14 14:18:54;;;;;;;9.95;2.00;;;;;;;25.14;19.49;100150.84;4944527;28;20507;-93
2023/03/14 14:25:48;;;;;;;10.95;2.17;;;;;;;21.85;21.93;100187.38;4900220;29;20129;-93
2023/03/14 14:45:47;;;;;;;7.03;1.60;;;;;;;16.59;26.70;100232.34;4898625;29;20047;-93
2023/03/14 15:05:41;;;;;;;7.85;1.20;;;;;;;12.23;32.29;100305.28;4863131;29;20051;-92
2023/03/14 15:08:24;;;;;;;7.50;0.90;;;;;;;11.64;33.51;100308.81;4847629;29;20124;-93
2023/03/14 15:10:55;;;;;;;7.93;1.10;;;;;;;11.28;33.86;100318.81;4858467;29;20072;-91
2023/03/14 15:13:34;;;;;;;6.65;1.15;;;;;;;10.88;34.82;100320.25;4867872;29;20049;-91
2023/03/14 15:16:00;;;;;;;11.00;1.30;;;;;;;10.62;35.67;100329.56;4882876;29;20065;-92
2023/03/14 15:19:11;;;;;;;;;;;;;;;;;;;;;
2023/03/14 15:22:40;;;;;;;5.18;0.70;;;;;;;10.03;37.15;100360.88;4899234;29;20051;-90
2023/03/14 15:25:42;;;;;;;;;;;;;;;;;;;;;
2023/03/14 15:28:39;;;;;;;;;;;;;;;;;;;;;
2023/03/14 15:31:19;;;;;;;6.47;1.00;;;;;;;8.88;38.63;100379.81;4917379;29;20032;-91
2023/03/14 15:34:20;;;;;;;7.82;0.77;;;;;;;8.73;38.76;100396.31;4878842;29;20482;-91
2023/03/14 15:36:48;;;;;;;6.93;0.80;;;;;;;8.46;39.29;100400.16;4901096;29;20383;-90
2023/03/14 15:42:30;;;;;;;6.60;0.80;;;;;;;8.08;39.93;100388.97;4832978;29;20053;-90
2023/03/14 15:51:53;;;;;;;6.65;1.00;;;;;;;7.61;43.13;100415.19;4893320;29;20047;-90
2023/03/14 15:54:29;;;;;;;6.65;0.85;;;;;;;7.53;43.86;100416.22;4902529;29;20028;-90
2023/03/14 15:57:02;;;;;;;11.02;0.90;;;;;;;7.46;43.80;100423.47;4916792;29;20028;-89
2023/03/14 16:04:02;;;;;;;;;;;;;;;;;;;;;
2023/03/14 16:16:29;;;;;;;8.45;1.08;;;;;;;6.60;45.12;100473.38;4903272;28;20095;-89
2023/03/14 16:22:51;;;;;;;5.18;0.80;;;;;;;6.43;43.41;100482.78;4936182;29;20078;-91
2023/03/14 16:25:43;;;;;;;9.02;0.77;;;;;;;6.36;43.60;100490.00;4919255;29;20086;-89
2023/03/14 16:28:12;;;;;;;5.25;0.85;;;;;;;6.35;44.73;100501.78;4920829;29;20039;-91
2023/03/14 16:30:38;;;;;;;6.88;1.20;;;;;;;6.22;45.78;100511.44;4919309;29;20035;-89
2023/03/14 16:33:09;;;;;;;11.15;0.70;;;;;;;6.15;45.05;100511.38;4935175;29;20083;-90
2023/03/14 16:35:41;;;;;;;8.98;0.90;;;;;;;6.13;45.37;100528.78;4902879;29;20046;-89
2023/03/14 16:38:26;;;;;;;7.63;1.20;;;;;;;6.09;45.18;100535.59;4934459;29;20035;-89
2023/03/14 16:44:17;;;;;;;7.32;0.88;;;;;;;5.87;47.04;100540.09;4939906;29;20062;-90
2023/03/14 16:49:49;;;;;;;5.63;0.47;;;;;;;5.80;46.53;100543.56;4891553;29;20062;-91
2023/03/14 16:52:46;;;;;;;5.83;0.80;;;;;;;5.77;47.17;100556.56;4923280;29;20040;-90
2023/03/14 16:55:22;;;;;;;8.55;0.80;;;;;;;5.75;47.66;100570.22;4938105;29;20054;-90
2023/03/14 16:58:31;;;;;;;11.02;0.80;;;;;;;5.77;47.34;100576.28;4922382;29;20055;-90
2023/03/14 17:00:57;;;;;;;9.68;1.05;;;;;;;5.67;48.29;100570.34;4929002;29;20039;-89
2023/03/14 17:03:26;;;;;;;11.10;1.00;;;;;;;5.62;48.53;100560.16;4921892;29;20114;-89
2023/03/14 17:09:37;;;;;;;11.35;1.10;;;;;;;5.51;49.36;100576.78;4939330;29;20051;-90
2023/03/14 17:12:09;;;;;;;12.27;1.02;;;;;;;5.48;50.49;100581.69;4939089;29;20480;-89
2023/03/14 17:14:58;;;;;;;6.45;0.88;;;;;;;5.48;49.60;100590.63;4939669;29;20024;-89
2023/03/14 17:18:03;;;;;;;10.82;1.30;;;;;;;5.41;49.69;100587.00;4908479;29;20035;-90
2023/03/14 17:20:41;;;;;;;9.20;0.70;;;;;;;5.38;50.64;100592.78;4922336;29;20374;-90
2023/03/14 17:23:24;;;;;;;7.22;0.80;;;;;;;5.44;49.66;100602.78;4906388;29;20044;-88
2023/03/14 17:25:55;;;;;;;7.78;0.93;;;;;;;5.39;50.27;100611.41;4922016;29;20040;-89
2023/03/14 17:28:24;;;;;;;8.52;1.08;;;;;;;5.46;50.86;100633.00;4937874;29;20043;-89
2023/03/14 17:34:04;;;;;;;;;;;;;;;;;;;;;
2023/03/14 17:40:00;;;;;;;7.80;0.90;;;;;;;5.00;51.93;100652.84;4880608;29;20052;-89
2023/03/14 17:42:30;;;;;;;6.45;0.50;;;;;;;4.92;52.64;100648.41;4937754;29;20042;-88
2023/03/14 17:44:55;;;;;;;10.57;1.08;;;;;;;4.87;53.22;100661.56;4921573;29;20035;-88
2023/03/14 17:47:23;;;;;;;13.80;0.88;;;;;;;4.84;52.94;100675.38;4937171;29;20028;-89
2023/03/14 17:50:03;;;;;;;9.90;1.10;;;;;;;4.72;53.86;100668.75;4937572;29;20036;-88
2023/03/14 17:52:32;;;;;;;13.83;1.10;;;;;;;4.65;54.60;100682.09;4937236;29;20079;-88
2023/03/14 17:55:00;;;;;;;13.63;2.13;;;;;;;4.64;54.96;100695.72;4932014;29;20047;-88
2023/03/14 17:57:28;;;;;;;7.95;1.27;;;;;;;4.53;55.17;100686.19;4944920;29;20113;-89
2023/03/14 17:59:56;;;;;;;7.57;1.20;;;;;;;4.49;56.13;100711.78;4921669;29;20163;-89
2023/03/14 18:02:28;;;;;;;10.43;1.15;;;;;;;4.40;56.23;100713.69;4923946;29;20054;-89
2023/03/14 18:04:56;;;;;;;8.60;1.23;;;;;;;4.32;56.76;100711.03;4928917;29;20036;-89
2023/03/14 18:07:29;;;;;;;9.95;1.83;;;;;;;4.21;56.55;100707.75;4936924;29;20059;-89
2023/03/14 18:09:54;;;;;;;6.57;1.30;;;;;;;4.20;56.37;100724.88;4921603;29;20032;-88
2023/03/14 18:12:25;;;;;;;9.20;1.40;;;;;;;4.08;56.59;100720.09;4938163;29;20518;-88
2023/03/14 18:14:53;;;;;;;13.05;1.73;;;;;;;3.99;56.07;100712.06;4905977;29;20043;-88
2023/03/14 18:17:21;;;;;;;6.72;0.90;;;;;;;3.94;56.09;100727.88;4920786;29;20039;-88
2023/03/14 18:19:54;;;;;;;10.88;1.33;;;;;;;3.91;56.95;100738.09;4920519;29;20055;-88
2023/03/14 18:27:35;;;;;;;7.68;1.00;;;;;;;3.71;57.72;100754.63;5518540;23;20485;-91
2023/03/14 18:30:01;;;;;;;11.15;1.67;;;;;;;3.56;58.56;100750.97;4978961;28;20042;-90
2023/03/14 18:32:27;;;;;;;9.45;1.88;;;;;;;3.52;58.83;100758.53;5001308;28;20045;-90
2023/03/14 18:34:59;;;;;;;12.20;1.77;;;;;;;3.47;58.79;100760.88;4998856;28;20030;-90
2023/03/14 18:37:28;;;;;;;6.90;1.38;;;;;;;3.44;59.19;100782.69;4988544;28;20030;-89
2023/03/14 18:39:54;;;;;;;7.35;1.60;;;;;;;3.41;60.02;100783.00;4995672;28;20029;-88
2023/03/14 18:42:22;;;;;;;11.30;1.40;;;;;;;3.27;60.38;100784.56;5013653;28;20034;-89
2023/03/14 18:44:47;;;;;;;9.93;1.45;;;;;;;3.26;61.77;100789.09;4980828;28;20432;-89
2023/03/14 18:47:12;;;;;;;11.57;1.50;;;;;;;3.18;61.34;100793.63;4995323;28;20030;-89
2023/03/14 18:49:40;;;;;;;12.20;1.33;;;;;;;3.09;62.26;100787.41;5011278;28;20382;-89
2023/03/14 18:52:06;;;;;;;6.32;1.60;;;;;;;3.04;62.67;100792.44;4994178;28;20417;-89
2023/03/14 18:54:36;;;;;;;10.02;1.30;;;;;;;3.02;63.26;100811.34;4987781;28;20489;-89
2023/03/14 18:57:06;;;;;;;8.55;1.27;;;;;;;2.97;63.23;100803.00;4970856;28;20034;-89
2023/03/14 18:59:32;;;;;;;10.75;1.52;;;;;;;2.89;63.50;100805.66;4980874;28;20418;-90
2023/03/14 19:01:57;;;;;;;11.20;1.45;;;;;;;2.91;63.58;100811.69;4989103;28;20054;-89
2023/03/14 19:04:23;;;;;;;6.63;0.97;;;;;;;2.80;63.57;100807.50;4996913;28;20037;-89
2023/03/14 19:06:48;;;;;;;10.57;1.87;;;;;;;2.78;63.83;100809.50;5010049;28;20452;-89
2023/03/14 19:09:16;;;;;;;8.10;1.40;;;;;;;2.73;63.86;100807.31;4995660;28;20466;-89
2023/03/14 19:11:42;;;;;;;10.57;1.10;;;;;;;2.69;64.42;100821.19;4996097;28;20026;-90
2023/03/14 19:14:08;;;;;;;10.10;0.65;;;;;;;2.67;64.30;100818.69;4993918;28;20029;-90
2023/03/14 19:16:34;;;;;;;10.77;0.97;;;;;;;2.74;64.25;100829.59;4989127;28;20027;-90
2023/03/14 19:19:00;;;;;;;11.45;0.82;;;;;;;2.60;64.75;100818.50;4959569;28;20037;-90
2023/03/14 19:21:38;;;;;;;8.37;0.70;;;;;;;2.65;64.89;100825.22;4972103;28;20030;-91
2023/03/14 19:24:04;;;;;;;12.43;1.00;;;;;;;2.54;65.10;100821.00;4984463;28;20076;-91
2023/03/14 19:26:34;;;;;;;6.53;0.57;;;;;;;2.48;65.41;100825.19;4984438;28;20049;-91